Time;durP1;ratioP1;P1;durP2;ratioP2;P2;SDS_P1;SDS_P2;PMS_P1;PMS_P2;Temp;Humidity;BMP_temperature;BMP_pressure;BME280_temperature;BME280_humidity;BME280_pressure;Samples;Min_cycle;Max_cycle;Signal;HPM_P1;HPM_P2
2022/07/05 00:02:04;;;;;;;4.10;3.20;;;19.00;99.90;;;;;;4972308;28;20400;-35
2022/07/05 00:04:30;;;;;;;3.95;2.90;;;18.90;99.90;;;;;;4974441;28;20162;-34
2022/07/05 00:09:40;;;;;;;3.35;3.10;;;19.00;99.90;;;;;;4973379;28;20050;-35
2022/07/05 00:12:06;;;;;;;3.75;3.38;;;18.90;99.90;;;;;;4973354;28;20030;-34
2022/07/05 00:14:31;;;;;;;4.05;3.40;;;19.00;99.90;;;;;;4974690;28;20027;-37
2022/07/05 00:16:57;;;;;;;3.50;3.10;;;19.00;99.90;;;;;;4973286;28;20019;-36
2022/07/05 00:19:22;;;;;;;4.28;3.10;;;19.10;99.90;;;;;;4975076;28;20086;-36
2022/07/05 00:21:48;;;;;;;4.28;3.13;;;19.10;99.90;;;;;;4972686;28;20134;-38
2022/07/05 00:24:14;;;;;;;4.07;3.50;;;19.10;99.90;;;;;;4974562;28;20034;-38
2022/07/05 00:26:39;;;;;;;3.47;3.13;;;19.00;99.90;;;;;;4971186;28;20091;-38
2022/07/05 00:29:05;;;;;;;6.78;3.67;;;19.00;99.90;;;;;;4972474;28;20027;-35
2022/07/05 00:31:31;;;;;;;3.40;3.10;;;19.10;99.90;;;;;;4970191;28;20031;-34
2022/07/05 00:33:56;;;;;;;3.38;3.08;;;19.10;99.90;;;;;;4969908;28;20041;-34
2022/07/05 00:36:22;;;;;;;4.97;3.45;;;19.10;99.90;;;;;;4973330;28;20022;-37
2022/07/05 00:38:47;;;;;;;4.50;3.17;;;19.10;99.90;;;;;;4971877;28;20460;-35
2022/07/05 00:41:13;;;;;;;3.50;3.20;;;19.20;99.90;;;;;;4972279;28;20019;-37
2022/07/05 00:44:03;;;;;;;3.70;3.40;;;19.20;99.90;;;;;;4975508;28;20034;-36
2022/07/05 00:46:29;;;;;;;3.45;3.15;;;19.20;99.90;;;;;;4971721;28;20077;-37
2022/07/05 00:48:56;;;;;;;5.60;3.30;;;19.20;99.90;;;;;;4972121;28;20049;-36
2022/07/05 00:51:23;;;;;;;6.22;3.65;;;19.30;99.90;;;;;;4972657;28;20022;-35
2022/07/05 00:53:49;;;;;;;3.53;3.22;;;19.30;99.90;;;;;;4970738;28;20041;-35
2022/07/05 00:56:15;;;;;;;3.90;3.60;;;19.30;99.90;;;;;;4970539;28;20037;-38
2022/07/05 00:58:41;;;;;;;4.28;3.40;;;19.30;99.90;;;;;;4971626;28;20039;-35
2022/07/05 01:01:08;;;;;;;4.10;3.65;;;19.30;99.90;;;;;;4974665;28;20043;-38
2022/07/05 01:03:35;;;;;;;3.55;3.20;;;19.20;99.90;;;;;;4971649;28;20443;-36
2022/07/05 01:06:02;;;;;;;4.15;3.65;;;19.10;99.90;;;;;;4974210;28;20045;-38
2022/07/05 01:08:28;;;;;;;3.95;3.05;;;19.10;99.90;;;;;;4973846;28;20038;-37
2022/07/05 01:10:55;;;;;;;4.10;3.70;;;19.20;99.90;;;;;;4977572;28;20027;-35
2022/07/05 01:13:22;;;;;;;4.68;3.60;;;19.10;99.90;;;;;;4974314;28;20023;-35
2022/07/05 01:15:48;;;;;;;3.10;2.90;;;19.10;99.90;;;;;;4975278;28;20043;-38
2022/07/05 01:18:14;;;;;;;4.10;2.90;;;19.10;99.90;;;;;;4975493;28;20118;-38
2022/07/05 01:20:41;;;;;;;3.85;3.13;;;19.10;99.90;;;;;;4974926;28;20039;-38
2022/07/05 01:23:08;;;;;;;3.57;3.27;;;19.10;99.90;;;;;;4974801;28;20034;-37
2022/07/05 01:25:34;;;;;;;3.42;3.10;;;19.10;99.90;;;;;;4976366;28;20483;-38
2022/07/05 01:28:02;;;;;;;3.90;3.60;;;19.10;99.90;;;;;;4974634;28;20038;-34
2022/07/05 01:30:28;;;;;;;3.97;3.50;;;19.10;99.90;;;;;;4978311;28;20035;-34
2022/07/05 01:32:53;;;;;;;5.65;3.83;;;19.10;99.90;;;;;;4974745;28;20388;-37
2022/07/05 01:35:23;;;;;;;3.88;3.58;;;19.10;99.90;;;;;;4974231;28;20045;-38
2022/07/05 01:37:49;;;;;;;5.10;3.42;;;19.10;99.90;;;;;;4975386;28;20484;-37
2022/07/05 01:40:15;;;;;;;3.50;3.20;;;19.00;99.90;;;;;;4974765;28;20511;-38
2022/07/05 01:42:41;;;;;;;4.05;3.30;;;19.00;99.90;;;;;;4974385;28;20066;-36
2022/07/05 01:45:07;;;;;;;3.08;2.78;;;19.00;99.90;;;;;;4975050;28;20804;-35
2022/07/05 01:47:36;;;;;;;4.13;3.13;;;18.90;99.90;;;;;;4974072;28;20035;-36
2022/07/05 01:50:05;;;;;;;4.50;2.95;;;18.90;99.90;;;;;;4973607;28;20499;-35
2022/07/05 01:52:31;;;;;;;3.63;3.33;;;18.90;99.90;;;;;;4971188;28;20034;-36
2022/07/05 01:55:01;;;;;;;5.20;3.42;;;18.80;99.90;;;;;;4974830;28;20114;-37
2022/07/05 01:57:27;;;;;;;4.20;3.15;;;18.70;99.90;;;;;;4974131;28;20138;-37
2022/07/05 01:59:53;;;;;;;4.28;3.38;;;18.70;99.90;;;;;;4975331;28;20035;-38
2022/07/05 02:02:18;;;;;;;4.05;3.47;;;18.60;99.90;;;;;;4971545;28;20035;-38
2022/07/05 02:04:44;;;;;;;6.07;3.92;;;18.30;99.90;;;;;;4974683;28;20046;-34
2022/07/05 02:07:10;;;;;;;4.60;3.75;;;18.30;99.90;;;;;;4974318;28;20038;-34
2022/07/05 02:09:36;;;;;;;3.75;3.35;;;18.30;99.90;;;;;;4976257;28;20368;-34
2022/07/05 02:12:03;;;;;;;3.33;3.10;;;18.40;99.90;;;;;;4981258;28;20034;-35
2022/07/05 02:14:29;;;;;;;3.95;3.13;;;18.40;99.90;;;;;;4973179;28;20424;-36
2022/07/05 02:16:54;;;;;;;3.90;3.60;;;18.30;99.90;;;;;;4974957;28;20099;-36
2022/07/05 02:19:20;;;;;;;4.35;3.03;;;18.30;99.90;;;;;;4974267;28;20031;-38
2022/07/05 02:21:45;;;;;;;3.63;3.03;;;18.30;99.90;;;;;;4974722;28;20034;-35
2022/07/05 02:24:11;;;;;;;7.28;3.50;;;18.30;99.90;;;;;;4972195;28;20077;-38
2022/07/05 02:26:37;;;;;;;3.65;3.17;;;18.20;99.90;;;;;;4975459;28;20030;-38
2022/07/05 02:29:04;;;;;;;5.07;3.00;;;18.20;99.90;;;;;;4972197;28;20062;-37
2022/07/05 02:31:30;;;;;;;3.60;3.30;;;18.20;99.90;;;;;;4974097;28;20030;-38
2022/07/05 02:33:56;;;;;;;3.55;3.25;;;18.30;99.90;;;;;;4974399;28;20373;-38
2022/07/05 02:36:22;;;;;;;3.33;3.03;;;18.20;99.90;;;;;;4973952;28;20024;-40
2022/07/05 02:38:48;;;;;;;4.25;3.15;;;18.20;99.90;;;;;;4974828;28;20133;-38
2022/07/05 02:41:13;;;;;;;3.28;3.03;;;18.20;99.90;;;;;;4974406;28;20139;-36
2022/07/05 02:43:39;;;;;;;6.15;3.95;;;18.00;99.90;;;;;;4971672;28;20035;-37
2022/07/05 02:46:06;;;;;;;8.48;3.28;;;18.00;99.90;;;;;;4974256;28;20035;-39
2022/07/05 02:48:33;;;;;;;3.00;2.80;;;18.00;99.90;;;;;;4974252;28;20043;-35
2022/07/05 02:50:58;;;;;;;3.30;3.00;;;18.00;99.90;;;;;;4970332;28;20034;-38
2022/07/05 02:53:25;;;;;;;3.95;3.58;;;18.00;99.90;;;;;;4974783;28;20480;-39
2022/07/05 02:55:50;;;;;;;3.75;3.45;;;17.90;99.90;;;;;;4974819;28;20042;-39
2022/07/05 02:58:16;;;;;;;3.83;3.10;;;17.80;99.90;;;;;;4975173;28;20027;-39
2022/07/05 03:00:47;;;;;;;4.63;3.10;;;17.70;99.90;;;;;;4974100;28;20404;-40
2022/07/05 03:03:13;;;;;;;3.35;3.05;;;17.60;99.90;;;;;;4975131;28;20027;-37
2022/07/05 03:05:39;;;;;;;3.50;3.20;;;17.50;99.90;;;;;;4974263;28;20034;-38
2022/07/05 03:08:04;;;;;;;3.28;2.97;;;17.40;99.90;;;;;;4975393;28;20492;-40
2022/07/05 03:10:30;;;;;;;9.93;2.75;;;17.40;99.90;;;;;;4974716;28;20034;-36
2022/07/05 03:12:56;;;;;;;2.90;2.70;;;17.50;99.90;;;;;;4973275;28;20029;-38
2022/07/05 03:15:21;;;;;;;2.90;2.70;;;17.60;99.90;;;;;;4974595;28;20066;-36
2022/07/05 03:17:47;;;;;;;2.65;2.45;;;17.70;99.90;;;;;;4974172;28;20113;-39
2022/07/05 03:20:13;;;;;;;3.67;2.53;;;17.70;99.90;;;;;;4973373;28;20097;-39
2022/07/05 03:22:38;;;;;;;2.85;2.65;;;17.80;99.90;;;;;;4974446;28;20035;-38
2022/07/05 03:25:05;;;;;;;4.72;3.55;;;17.80;99.90;;;;;;4955520;28;20037;-40
2022/07/05 03:27:31;;;;;;;5.50;3.60;;;17.90;99.90;;;;;;4973254;28;20483;-36
2022/07/05 03:29:57;;;;;;;4.55;3.50;;;17.90;99.90;;;;;;4971936;28;20114;-38
2022/07/05 03:32:22;;;;;;;4.95;3.60;;;17.90;99.90;;;;;;4972763;28;20485;-39
2022/07/05 03:34:48;;;;;;;5.75;4.07;;;17.80;99.90;;;;;;4976085;28;20488;-37
2022/07/05 03:37:14;;;;;;;4.53;3.88;;;17.70;99.90;;;;;;4967881;28;20051;-38
2022/07/05 03:39:39;;;;;;;4.00;3.33;;;17.60;99.90;;;;;;4971945;28;20018;-37
2022/07/05 03:42:05;;;;;;;4.15;3.25;;;17.70;99.90;;;;;;4974514;28;20054;-39
2022/07/05 03:44:32;;;;;;;3.60;3.30;;;17.70;99.90;;;;;;4970813;28;20023;-37
2022/07/05 03:46:59;;;;;;;4.97;3.30;;;17.50;99.90;;;;;;4974228;28;20113;-39
2022/07/05 03:49:24;;;;;;;3.97;2.95;;;17.30;99.90;;;;;;4974186;28;20046;-38
2022/07/05 03:51:50;;;;;;;3.47;3.08;;;17.30;99.90;;;;;;4971814;28;20482;-35
2022/07/05 03:54:15;;;;;;;3.50;3.20;;;17.40;99.90;;;;;;4974547;28;20034;-37
2022/07/05 03:56:41;;;;;;;4.03;3.40;;;17.50;99.90;;;;;;4956292;28;20026;-39
2022/07/05 03:59:07;;;;;;;5.15;3.55;;;17.50;99.90;;;;;;4974455;28;20046;-39
2022/07/05 04:01:32;;;;;;;5.07;4.57;;;17.60;99.90;;;;;;4973536;28;20059;-36
2022/07/05 04:03:58;;;;;;;4.45;4.05;;;17.60;99.90;;;;;;4973503;28;20023;-39
2022/07/05 04:06:24;;;;;;;5.57;5.07;;;17.60;99.90;;;;;;4974479;28;20046;-39
2022/07/05 04:08:50;;;;;;;6.00;4.22;;;17.60;99.90;;;;;;4970504;28;20043;-39
2022/07/05 04:11:16;;;;;;;4.20;3.53;;;17.60;99.90;;;;;;4974869;28;20480;-37
2022/07/05 04:13:42;;;;;;;3.95;3.40;;;17.70;99.90;;;;;;4974178;28;20062;-38
2022/07/05 04:16:08;;;;;;;3.60;3.25;;;17.80;99.90;;;;;;4973942;28;20042;-39
2022/07/05 04:18:34;;;;;;;4.15;3.38;;;17.90;99.90;;;;;;4970952;28;20054;-38
2022/07/05 04:21:01;;;;;;;4.00;3.60;;;17.90;99.90;;;;;;4972926;28;20070;-37
2022/07/05 04:23:26;;;;;;;4.30;3.90;;;17.90;99.90;;;;;;4973576;28;20042;-38
2022/07/05 04:25:52;;;;;;;4.55;4.10;;;17.90;99.90;;;;;;4973032;28;20030;-36
2022/07/05 04:28:17;;;;;;;4.88;4.25;;;17.90;99.90;;;;;;4972914;28;20488;-37
2022/07/05 04:30:43;;;;;;;5.05;4.40;;;17.90;99.90;;;;;;4972316;28;20038;-36
2022/07/05 04:33:09;;;;;;;4.70;4.05;;;18.00;99.90;;;;;;4971373;28;20023;-36
2022/07/05 04:35:34;;;;;;;6.40;4.47;;;17.90;99.90;;;;;;4972456;28;20035;-38
2022/07/05 04:38:00;;;;;;;7.00;5.00;;;17.90;99.90;;;;;;4972648;28;20502;-37
2022/07/05 04:40:25;;;;;;;8.23;4.70;;;18.00;99.90;;;;;;4970598;28;20074;-39
2022/07/05 04:42:51;;;;;;;4.72;4.30;;;18.00;99.90;;;;;;4975002;28;20074;-36
2022/07/05 04:45:17;;;;;;;4.80;4.30;;;18.10;99.90;;;;;;4979798;28;20037;-39
2022/07/05 04:47:42;;;;;;;5.82;4.30;;;18.20;99.90;;;;;;4976067;28;20388;-36
2022/07/05 04:50:08;;;;;;;5.10;4.60;;;18.30;99.90;;;;;;4975604;28;20038;-38
2022/07/05 04:52:34;;;;;;;5.90;4.20;;;18.30;99.90;;;;;;4976311;28;20030;-38
2022/07/05 04:54:59;;;;;;;6.30;4.68;;;18.40;99.90;;;;;;4978532;28;20035;-38
2022/07/05 04:57:25;;;;;;;5.13;4.57;;;18.50;99.90;;;;;;4975253;28;20035;-37
2022/07/05 04:59:51;;;;;;;6.18;4.47;;;18.50;99.90;;;;;;4976117;28;20074;-39
2022/07/05 05:02:17;;;;;;;6.93;4.55;;;18.50;99.90;;;;;;4975086;28;20067;-38
2022/07/05 05:04:42;;;;;;;9.73;5.38;;;18.50;99.90;;;;;;4976412;28;20026;-35
2022/07/05 05:07:08;;;;;;;6.65;4.93;;;18.40;99.90;;;;;;4976455;28;20105;-37
2022/07/05 05:09:34;;;;;;;5.00;4.60;;;18.50;99.90;;;;;;4975073;28;20464;-40
2022/07/05 05:11:59;;;;;;;5.38;4.43;;;18.60;99.90;;;;;;4975210;28;20066;-36
2022/07/05 05:14:25;;;;;;;6.93;4.97;;;18.80;99.90;;;;;;4975812;28;20114;-37
2022/07/05 05:16:51;;;;;;;7.28;4.82;;;18.70;99.90;;;;;;4975214;28;20395;-39
2022/07/05 05:19:16;;;;;;;7.13;4.70;;;18.60;99.90;;;;;;4974382;28;20034;-38
2022/07/05 05:21:42;;;;;;;5.72;4.40;;;18.70;99.90;;;;;;4975568;28;20038;-39
2022/07/05 05:24:07;;;;;;;5.53;4.47;;;18.90;99.90;;;;;;4977498;28;20476;-39
2022/07/05 05:26:33;;;;;;;6.63;4.82;;;19.10;99.90;;;;;;4958958;28;20034;-39
2022/07/05 05:28:59;;;;;;;6.03;4.78;;;19.10;99.90;;;;;;4975069;28;20023;-38
2022/07/05 05:31:25;;;;;;;7.55;4.68;;;19.20;99.90;;;;;;4975047;28;20111;-36
2022/07/05 05:33:51;;;;;;;7.72;4.63;;;19.30;99.90;;;;;;4975718;28;20054;-37
2022/07/05 05:36:16;;;;;;;6.30;4.93;;;19.30;99.90;;;;;;4978867;28;20030;-37
2022/07/05 05:38:42;;;;;;;7.43;5.05;;;19.40;99.90;;;;;;4973544;28;20101;-36
2022/07/05 05:41:07;;;;;;;8.50;4.57;;;19.40;99.90;;;;;;4978395;28;20077;-38
2022/07/05 05:43:33;;;;;;;7.45;4.68;;;19.70;99.90;;;;;;4974261;28;20030;-39
2022/07/05 05:45:59;;;;;;;8.57;5.13;;;19.70;99.90;;;;;;4978057;28;20039;-40
2022/07/05 05:48:25;;;;;;;6.22;4.47;;;19.90;99.90;;;;;;4975555;28;20031;-38
2022/07/05 05:50:51;;;;;;;5.55;4.25;;;20.10;99.90;;;;;;4975045;28;20491;-39
2022/07/05 05:53:17;;;;;;;4.47;3.90;;;20.00;99.90;;;;;;4975439;28;20034;-38
2022/07/05 05:55:43;;;;;;;5.68;3.88;;;20.00;99.90;;;;;;4974592;28;20448;-39
2022/07/05 05:58:17;;;;;;;7.80;4.28;;;19.90;99.90;;;;;;4974933;28;20493;-39
2022/07/05 06:00:44;;;;;;;5.18;3.92;;;20.00;99.90;;;;;;4975428;28;20114;-40
2022/07/05 06:03:10;;;;;;;6.75;4.55;;;20.20;99.90;;;;;;4974826;28;20027;-37
2022/07/05 06:05:35;;;;;;;5.20;4.13;;;20.40;99.90;;;;;;4976404;28;20058;-37
2022/07/05 06:08:01;;;;;;;4.85;3.95;;;20.50;99.90;;;;;;4975924;28;20062;-37
2022/07/05 06:10:29;;;;;;;4.97;4.47;;;20.70;99.90;;;;;;4977373;28;20543;-37
2022/07/05 06:12:58;;;;;;;6.07;4.38;;;20.70;99.90;;;;;;4974716;28;20037;-39
2022/07/05 06:15:23;;;;;;;4.15;3.63;;;20.80;99.90;;;;;;4974347;28;20050;-37
2022/07/05 06:17:49;;;;;;;4.43;4.03;;;20.60;99.90;;;;;;4975206;28;20041;-37
2022/07/05 06:20:36;;;;;;;3.92;3.53;;;20.30;99.90;;;;;;4975093;28;20109;-36
2022/07/05 06:23:03;;;;;;;4.60;3.58;;;20.30;99.90;;;;;;4971701;28;20388;-39
2022/07/05 06:25:29;;;;;;;4.22;3.50;;;20.20;99.90;;;;;;4974661;28;20170;-38
2022/07/05 06:28:06;;;;;;;6.82;3.45;;;20.30;99.90;;;;;;4973585;28;20125;-36
2022/07/05 06:30:34;;;;;;;3.70;3.33;;;20.50;99.90;;;;;;4974450;28;20571;-39
2022/07/05 06:33:00;;;;;;;3.83;2.92;;;20.40;99.90;;;;;;4974631;28;20026;-37
2022/07/05 06:35:26;;;;;;;4.72;2.95;;;20.50;99.90;;;;;;4978137;28;20035;-40
2022/07/05 06:37:57;;;;;;;4.50;2.88;;;20.60;99.90;;;;;;4975367;28;20026;-36
2022/07/05 06:40:32;;;;;;;3.78;3.28;;;20.60;99.90;;;;;;4958194;28;20581;-38
2022/07/05 06:43:01;;;;;;;3.20;3.00;;;20.60;99.90;;;;;;4972271;28;20050;-36
2022/07/05 06:45:27;;;;;;;2.97;2.67;;;20.60;99.90;;;;;;4978648;28;20913;-38
2022/07/05 06:48:03;;;;;;;4.07;3.20;;;20.60;99.90;;;;;;4980599;28;20035;-39
2022/07/05 06:50:32;;;;;;;3.38;3.08;;;20.60;99.90;;;;;;4973600;28;20027;-38
2022/07/05 06:52:57;;;;;;;5.53;2.80;;;20.80;99.90;;;;;;4977814;28;20592;-38
2022/07/05 06:55:24;;;;;;;4.32;2.92;;;20.70;99.90;;;;;;4977848;28;20046;-38
2022/07/05 06:57:56;;;;;;;3.30;3.00;;;20.60;99.90;;;;;;4981252;28;20030;-40
2022/07/05 07:00:22;;;;;;;3.45;2.97;;;20.70;99.90;;;;;;4969509;28;20062;-39
2022/07/05 07:02:47;;;;;;;4.95;2.75;;;21.10;99.90;;;;;;4981377;28;20038;-35
2022/07/05 07:05:13;;;;;;;3.78;2.90;;;21.40;99.90;;;;;;4970881;28;20037;-37
2022/07/05 07:10:23;;;;;;;2.60;2.40;;;21.80;98.20;;;;;;4963500;28;20041;-38
2022/07/05 07:12:49;;;;;;;2.88;2.67;;;21.70;99.90;;;;;;4977748;28;20027;-35
2022/07/05 07:15:14;;;;;;;2.78;2.58;;;22.10;99.40;;;;;;4980800;28;20035;-35
2022/07/05 07:17:40;;;;;;;3.50;2.60;;;22.40;98.60;;;;;;4983172;28;20039;-35
2022/07/05 07:20:06;;;;;;;3.22;2.92;;;22.50;97.70;;;;;;4981908;28;20035;-37
2022/07/05 07:22:31;;;;;;;4.55;2.85;;;22.70;98.40;;;;;;4985693;28;20041;-35
2022/07/05 07:24:57;;;;;;;3.50;2.10;;;22.50;96.70;;;;;;4982218;28;20041;-36
2022/07/05 07:27:22;;;;;;;2.97;2.50;;;22.30;96.90;;;;;;4980906;28;20030;-36
2022/07/05 07:29:48;;;;;;;2.80;2.35;;;22.40;97.20;;;;;;4981725;28;20058;-35
2022/07/05 07:32:14;;;;;;;2.40;2.20;;;22.50;96.30;;;;;;4984562;28;20057;-36
2022/07/05 07:34:39;;;;;;;2.30;2.10;;;22.30;96.60;;;;;;4981985;28;20027;-38
2022/07/05 07:37:08;;;;;;;3.10;2.22;;;22.70;95.20;;;;;;4978794;28;20026;-36
2022/07/05 07:39:34;;;;;;;5.20;3.00;;;22.70;96.10;;;;;;4980935;28;20380;-35
2022/07/05 07:42:00;;;;;;;2.65;2.00;;;22.70;94.40;;;;;;4981933;28;20093;-35
2022/07/05 07:44:26;;;;;;;4.25;2.60;;;22.70;95.50;;;;;;4979480;28;20058;-38
2022/07/05 07:46:51;;;;;;;3.25;2.25;;;22.50;93.30;;;;;;4958910;28;20074;-36
2022/07/05 07:49:18;;;;;;;3.33;2.28;;;22.50;96.00;;;;;;4981280;28;20062;-36
2022/07/05 07:51:44;;;;;;;2.80;2.50;;;22.20;96.00;;;;;;4982820;28;20115;-34
2022/07/05 07:54:09;;;;;;;2.60;2.35;;;22.30;96.00;;;;;;4981814;28;20050;-36
2022/07/05 07:56:35;;;;;;;3.78;2.40;;;22.50;97.70;;;;;;4982570;28;20188;-35
2022/07/05 07:59:01;;;;;;;3.63;2.40;;;22.60;97.70;;;;;;4980291;28;20014;-35
2022/07/05 08:01:27;;;;;;;3.55;2.45;;;22.80;96.20;;;;;;4981150;28;20043;-36
2022/07/05 08:03:52;;;;;;;2.42;2.25;;;23.20;95.20;;;;;;4980019;28;20582;-38
2022/07/05 08:06:18;;;;;;;2.42;2.22;;;22.90;93.40;;;;;;4980386;28;20385;-36
2022/07/05 08:08:44;;;;;;;2.38;2.28;;;22.70;93.80;;;;;;4980469;28;20067;-37
2022/07/05 08:11:11;;;;;;;3.25;2.35;;;22.50;92.50;;;;;;4975974;28;20034;-36
2022/07/05 08:13:39;;;;;;;1.80;1.70;;;22.90;90.70;;;;;;4985478;28;20037;-35
2022/07/05 08:16:05;;;;;;;2.05;1.85;;;23.00;85.30;;;;;;4976156;28;20070;-39
2022/07/05 08:24:00;;;;;;;2.95;2.28;;;23.50;79.70;;;;;;4988710;28;20093;-36
2022/07/05 08:26:27;;;;;;;2.65;2.45;;;23.70;90.60;;;;;;4980222;28;20045;-36
2022/07/05 08:28:52;;;;;;;2.20;2.10;;;23.70;82.40;;;;;;4982601;28;20482;-38
2022/07/05 08:31:18;;;;;;;2.45;2.20;;;23.90;87.90;;;;;;4982734;28;20059;-39
2022/07/05 08:33:44;;;;;;;2.28;2.10;;;24.00;82.70;;;;;;4968274;28;20030;-38
2022/07/05 08:36:09;;;;;;;2.05;1.83;;;24.20;86.90;;;;;;4982330;28;20034;-38
2022/07/05 08:38:35;;;;;;;2.55;2.10;;;24.60;81.10;;;;;;4987335;28;20093;-36
2022/07/05 08:41:02;;;;;;;2.10;1.73;;;25.00;78.90;;;;;;4979477;28;20404;-39
2022/07/05 08:43:29;;;;;;;4.18;1.92;;;25.30;61.80;;;;;;4981213;28;20046;-39
2022/07/05 08:45:56;;;;;;;1.70;1.40;;;25.30;63.90;;;;;;4980844;28;20042;-36
2022/07/05 08:48:24;;;;;;;1.88;1.55;;;25.40;60.10;;;;;;4985699;28;20034;-38
2022/07/05 08:50:51;;;;;;;1.80;1.70;;;25.70;61.00;;;;;;4980414;28;20468;-38
2022/07/05 08:53:20;;;;;;;2.10;1.90;;;25.70;60.20;;;;;;4981145;28;20027;-39
2022/07/05 08:55:46;;;;;;;5.00;1.70;;;26.00;61.70;;;;;;4977973;28;20022;-36
2022/07/05 08:58:12;;;;;;;1.90;1.63;;;26.50;57.00;;;;;;4982463;28;20483;-39
2022/07/05 09:00:39;;;;;;;4.10;1.90;;;26.80;58.20;;;;;;4977567;28;20034;-38
2022/07/05 09:03:08;;;;;;;;;;;26.70;54.20;;;;;;4982098;28;20026;-37
2022/07/05 09:05:43;;;;;;;2.55;1.63;;;26.60;56.10;;;;;;4978309;28;19910;-37
2022/07/05 09:08:16;;;;;;;2.30;1.80;;;26.80;52.50;;;;;;4980612;28;20484;-39
2022/07/05 09:10:43;;;;;;;2.47;1.75;;;26.00;47.70;;;;;;4980024;28;20495;-38
2022/07/05 09:13:09;;;;;;;2.72;1.40;;;25.90;49.30;;;;;;4984486;28;20413;-35
2022/07/05 09:15:37;;;;;;;2.42;1.70;;;25.50;49.70;;;;;;4985644;28;20530;-39
2022/07/05 09:18:03;;;;;;;1.98;1.80;;;25.70;51.30;;;;;;4981092;28;20030;-39
2022/07/05 09:20:29;;;;;;;2.33;1.52;;;25.70;47.50;;;;;;4963430;28;20085;-38
2022/07/05 09:22:55;;;;;;;2.85;1.75;;;25.80;49.90;;;;;;4980273;28;20033;-36
2022/07/05 09:25:23;;;;;;;1.80;1.45;;;25.90;48.70;;;;;;4982002;28;20246;-37
2022/07/05 09:28:03;;;;;;;1.70;1.60;;;26.40;51.70;;;;;;4972715;28;20073;-36
2022/07/05 09:30:41;;;;;;;2.40;1.58;;;26.50;49.40;;;;;;4972414;28;20365;-39
2022/07/05 09:33:09;;;;;;;1.50;1.40;;;26.10;47.10;;;;;;4978864;28;20022;-36
2022/07/05 09:35:42;;;;;;;1.80;1.70;;;25.40;49.50;;;;;;4960619;28;20027;-39
2022/07/05 09:38:22;;;;;;;1.73;1.63;;;25.40;50.80;;;;;;4979057;28;20053;-37
2022/07/05 09:40:55;;;;;;;1.60;1.50;;;24.60;49.70;;;;;;4978807;28;20111;-37
2022/07/05 09:43:23;;;;;;;2.83;1.60;;;24.40;53.00;;;;;;4980863;28;20408;-37
2022/07/05 09:45:56;;;;;;;;;;;24.30;51.10;;;;;;4982275;28;20041;-37
2022/07/05 09:48:23;;;;;;;1.75;1.35;;;24.30;49.20;;;;;;4982738;28;20076;-38
2022/07/05 09:50:51;;;;;;;1.65;1.27;;;24.70;49.40;;;;;;4986342;28;20033;-38
2022/07/05 09:53:17;;;;;;;1.83;1.65;;;25.10;47.90;;;;;;4979951;28;20041;-35
2022/07/05 09:56:09;;;;;;;2.28;1.35;;;25.50;46.60;;;;;;4976757;28;20042;-36
2022/07/05 09:58:34;;;;;;;2.95;1.80;;;25.00;46.00;;;;;;4959679;28;20058;-36
2022/07/05 10:01:00;;;;;;;1.33;1.23;;;24.80;45.20;;;;;;4981523;28;20150;-39
2022/07/05 10:03:26;;;;;;;1.33;1.33;;;25.40;47.00;;;;;;4964600;28;20045;-37
2022/07/05 10:05:51;;;;;;;1.30;1.20;;;25.90;44.50;;;;;;4985393;28;20122;-39
2022/07/05 10:08:19;;;;;;;2.25;1.23;;;26.10;43.30;;;;;;4978857;28;20042;-38
2022/07/05 10:10:47;;;;;;;1.73;1.40;;;25.60;42.30;;;;;;4869402;28;20388;-38
2022/07/05 10:13:14;;;;;;;1.60;1.50;;;25.40;42.10;;;;;;4980426;28;20041;-36
2022/07/05 10:15:41;;;;;;;1.58;1.48;;;25.10;44.20;;;;;;4983281;28;20050;-36
2022/07/05 10:18:11;;;;;;;1.70;1.60;;;24.80;44.40;;;;;;4958642;29;20035;-35
2022/07/05 10:20:37;;;;;;;1.60;1.50;;;24.60;44.80;;;;;;4981555;28;20031;-35
2022/07/05 10:23:12;;;;;;;1.48;1.38;;;24.90;48.10;;;;;;4982419;28;20029;-35
2022/07/05 10:25:43;;;;;;;1.73;1.40;;;25.60;47.60;;;;;;4981814;28;20364;-38
2022/07/05 10:28:09;;;;;;;1.67;1.48;;;25.70;45.50;;;;;;4980466;28;20030;-35
2022/07/05 10:30:35;;;;;;;1.45;1.35;;;25.90;44.90;;;;;;4981336;28;20031;-39
2022/07/05 10:33:03;;;;;;;1.55;1.45;;;26.10;44.80;;;;;;4980643;28;20023;-37
2022/07/05 10:35:29;;;;;;;;;;;26.60;46.70;;;;;;4978945;28;20472;-36
2022/07/05 10:37:55;;;;;;;1.42;1.30;;;25.70;41.50;;;;;;4980782;28;20029;-37
2022/07/05 10:40:21;;;;;;;1.50;1.40;;;26.00;42.90;;;;;;4981785;28;20031;-39
2022/07/05 10:42:55;;;;;;;1.50;1.40;;;26.10;43.70;;;;;;4980512;28;20037;-35
2022/07/05 10:45:32;;;;;;;1.30;1.25;;;25.90;43.10;;;;;;4981409;28;20026;-39
2022/07/05 10:48:12;;;;;;;1.50;1.30;;;26.20;43.20;;;;;;4974657;28;20040;-36
2022/07/05 10:50:48;;;;;;;1.98;1.40;;;26.10;41.70;;;;;;4976300;28;20476;-38
2022/07/05 10:53:15;;;;;;;1.30;1.30;;;25.80;43.40;;;;;;4980370;28;20050;-39
2022/07/05 10:55:50;;;;;;;1.88;1.50;;;25.80;42.30;;;;;;4980486;28;20026;-38
2022/07/05 10:58:24;;;;;;;4.18;1.85;;;25.70;43.60;;;;;;4979571;28;20042;-36
2022/07/05 11:01:12;;;;;;;1.95;1.33;;;25.70;43.00;;;;;;4972919;28;20436;-39
2022/07/05 11:03:41;;;;;;;1.45;1.35;;;25.80;42.50;;;;;;4973913;28;20035;-39
2022/07/05 11:06:08;;;;;;;3.10;1.30;;;25.50;42.20;;;;;;4986217;28;20563;-38
2022/07/05 11:08:58;;;;;;;1.23;1.23;;;25.50;42.80;;;;;;4979404;28;20038;-38
2022/07/05 11:11:32;;;;;;;2.22;1.45;;;25.40;39.60;;;;;;4977048;28;20097;-35
2022/07/05 11:14:00;;;;;;;1.13;1.13;;;25.50;39.20;;;;;;4976617;28;20400;-35
2022/07/05 11:16:29;;;;;;;1.48;1.38;;;25.30;38.10;;;;;;4979658;28;20053;-36
2022/07/05 11:19:09;;;;;;;1.63;1.50;;;25.20;40.90;;;;;;4975669;28;20118;-39
2022/07/05 11:21:43;;;;;;;1.52;1.38;;;25.40;40.70;;;;;;4985987;28;20110;-37
2022/07/05 11:24:28;;;;;;;1.60;1.50;;;25.10;39.40;;;;;;4981370;28;20026;-37
2022/07/05 11:26:59;;;;;;;2.40;1.38;;;24.90;42.50;;;;;;4984830;28;20058;-37
2022/07/05 11:29:53;;;;;;;4.28;1.42;;;24.70;42.30;;;;;;4980456;28;20391;-35
2022/07/05 11:32:29;;;;;;;1.80;1.40;;;24.50;42.60;;;;;;4975808;28;20400;-39
2022/07/05 11:35:11;;;;;;;4.00;1.50;;;24.60;42.70;;;;;;4979543;28;20102;-37
2022/07/05 11:38:09;;;;;;;1.42;1.33;;;24.70;41.30;;;;;;4981587;28;20023;-39
2022/07/05 11:40:37;;;;;;;1.50;1.40;;;25.10;41.30;;;;;;4981782;28;20027;-37
2022/07/05 11:43:06;;;;;;;1.50;1.45;;;25.50;43.30;;;;;;4975319;28;20499;-36
2022/07/05 11:45:32;;;;;;;1.60;1.50;;;25.70;41.60;;;;;;4976562;28;20027;-39
2022/07/05 11:47:58;;;;;;;1.92;1.50;;;25.50;42.80;;;;;;4978936;28;20547;-38
2022/07/05 11:50:33;;;;;;;2.00;1.50;;;25.40;40.90;;;;;;4980839;28;20038;-35
2022/07/05 11:53:00;;;;;;;1.58;1.40;;;25.40;41.40;;;;;;4978056;28;20018;-36
2022/07/05 11:55:27;;;;;;;1.50;1.40;;;25.50;40.60;;;;;;4980884;28;20030;-38
2022/07/05 11:57:54;;;;;;;1.38;1.38;;;25.40;41.40;;;;;;4979756;28;20034;-34
2022/07/05 12:00:35;;;;;;;2.00;1.80;;;25.40;41.30;;;;;;4980017;28;20726;-37
2022/07/05 12:03:09;;;;;;;1.48;1.38;;;25.60;41.70;;;;;;4975638;28;20070;-35
2022/07/05 12:05:35;;;;;;;1.70;1.58;;;25.70;41.90;;;;;;4962625;28;20022;-37
2022/07/05 12:08:01;;;;;;;1.67;1.50;;;25.50;39.30;;;;;;4979088;28;20049;-37
2022/07/05 12:13:11;;;;;;;1.50;1.40;;;25.80;40.80;;;;;;4976815;28;20045;-36
2022/07/05 12:15:37;;;;;;;1.50;1.40;;;25.80;40.90;;;;;;4971694;28;20055;-36
2022/07/05 12:18:05;;;;;;;1.98;1.65;;;25.70;42.50;;;;;;4976305;28;20361;-35
2022/07/05 12:20:33;;;;;;;1.50;1.30;;;25.50;40.40;;;;;;4977893;28;20035;-37
2022/07/05 12:23:00;;;;;;;2.63;1.58;;;25.40;41.50;;;;;;4962728;28;20023;-35
2022/07/05 12:25:27;;;;;;;1.67;1.55;;;25.70;43.20;;;;;;4978459;28;20034;-39
2022/07/05 12:27:55;;;;;;;2.80;1.60;;;25.90;41.30;;;;;;4979943;28;20098;-39
2022/07/05 12:30:21;;;;;;;3.65;1.35;;;26.10;38.70;;;;;;4977503;28;20031;-37
2022/07/05 12:33:03;;;;;;;1.73;1.35;;;26.00;39.70;;;;;;4977317;28;20058;-37
2022/07/05 12:35:50;;;;;;;1.33;1.30;;;26.00;40.10;;;;;;4978179;28;20019;-38
2022/07/05 12:38:20;;;;;;;1.63;1.52;;;25.60;38.90;;;;;;4975554;28;20026;-38
2022/07/05 12:40:59;;;;;;;4.07;1.50;;;25.30;40.60;;;;;;4975039;28;20038;-36
2022/07/05 12:43:25;;;;;;;2.25;1.25;;;25.30;41.70;;;;;;4978525;28;20379;-36
2022/07/05 12:46:07;;;;;;;3.17;1.50;;;25.30;42.70;;;;;;4978113;28;20106;-37
2022/07/05 12:48:38;;;;;;;1.58;1.48;;;25.40;45.60;;;;;;4964707;28;20031;-39
2022/07/05 12:51:05;;;;;;;1.55;1.40;;;25.40;41.50;;;;;;4979939;28;20027;-35
2022/07/05 12:59:02;;;;;;;1.88;1.55;;;25.60;41.20;;;;;;4979838;28;20042;-36
2022/07/05 13:01:42;;;;;;;1.50;1.40;;;25.70;42.50;;;;;;4978951;28;20098;-36
2022/07/05 13:04:17;;;;;;;1.60;1.50;;;25.70;42.20;;;;;;4979369;28;20479;-36
2022/07/05 13:06:50;;;;;;;2.25;1.60;;;25.50;41.30;;;;;;4979683;28;20110;-35
2022/07/05 13:09:30;;;;;;;1.30;1.20;;;25.30;42.60;;;;;;4977320;28;20031;-35
2022/07/05 13:12:11;;;;;;;1.10;1.10;;;25.10;43.50;;;;;;4981130;28;20361;-39